sensor_id;sensor_type;location;lat;lon;timestamp;P1;durP1;ratioP1;P2;durP2;ratioP2
15425;SDS011;7812;50.072;7.036;2022-07-29T00:00:44;4.47;;;2.00;;
15425;SDS011;7812;50.072;7.036;2022-07-29T00:03:13;2.47;;;1.77;;
15425;SDS011;7812;50.072;7.036;2022-07-29T00:05:39;4.67;;;2.00;;
15425;SDS011;7812;50.072;7.036;2022-07-29T00:08:06;3.53;;;1.77;;
15425;SDS011;7812;50.072;7.036;2022-07-29T00:10:33;3.87;;;1.73;;
15425;SDS011;7812;50.072;7.036;2022-07-29T00:12:59;1.63;;;1.40;;
15425;SDS011;7812;50.072;7.036;2022-07-29T00:15:28;2.10;;;1.53;;
15425;SDS011;7812;50.072;7.036;2022-07-29T00:17:54;1.93;;;1.80;;
15425;SDS011;7812;50.072;7.036;2022-07-29T00:20:19;2.10;;;1.50;;
15425;SDS011;7812;50.072;7.036;2022-07-29T00:22:45;1.70;;;1.60;;
15425;SDS011;7812;50.072;7.036;2022-07-29T00:25:11;2.00;;;1.53;;
15425;SDS011;7812;50.072;7.036;2022-07-29T00:27:38;2.77;;;1.97;;
15425;SDS011;7812;50.072;7.036;2022-07-29T00:30:04;3.67;;;1.50;;
15425;SDS011;7812;50.072;7.036;2022-07-29T00:32:31;4.20;;;1.67;;
15425;SDS011;7812;50.072;7.036;2022-07-29T00:34:57;3.90;;;1.90;;
15425;SDS011;7812;50.072;7.036;2022-07-29T00:37:41;3.30;;;1.77;;
15425;SDS011;7812;50.072;7.036;2022-07-29T00:40:07;3.33;;;1.87;;
15425;SDS011;7812;50.072;7.036;2022-07-29T00:42:43;2.57;;;1.80;;
15425;SDS011;7812;50.072;7.036;2022-07-29T00:45:13;3.20;;;1.87;;
15425;SDS011;7812;50.072;7.036;2022-07-29T00:47:40;2.43;;;1.60;;
15425;SDS011;7812;50.072;7.036;2022-07-29T00:50:07;1.70;;;1.60;;
15425;SDS011;7812;50.072;7.036;2022-07-29T00:52:35;2.73;;;2.00;;
15425;SDS011;7812;50.072;7.036;2022-07-29T00:55:03;2.00;;;1.80;;
15425;SDS011;7812;50.072;7.036;2022-07-29T00:57:29;3.03;;;1.73;;
15425;SDS011;7812;50.072;7.036;2022-07-29T00:59:55;2.80;;;1.77;;
15425;SDS011;7812;50.072;7.036;2022-07-29T01:02:21;3.83;;;2.00;;
15425;SDS011;7812;50.072;7.036;2022-07-29T01:04:47;3.23;;;2.13;;
15425;SDS011;7812;50.072;7.036;2022-07-29T01:07:13;3.03;;;1.90;;
15425;SDS011;7812;50.072;7.036;2022-07-29T01:09:40;3.37;;;1.87;;
15425;SDS011;7812;50.072;7.036;2022-07-29T01:12:09;3.37;;;1.77;;
15425;SDS011;7812;50.072;7.036;2022-07-29T01:14:37;2.23;;;1.87;;
15425;SDS011;7812;50.072;7.036;2022-07-29T01:20:14;5.47;;;1.90;;
15425;SDS011;7812;50.072;7.036;2022-07-29T01:22:53;2.93;;;1.67;;
15425;SDS011;7812;50.072;7.036;2022-07-29T01:31:16;2.60;;;2.03;;
15425;SDS011;7812;50.072;7.036;2022-07-29T01:33:49;3.57;;;1.83;;
15425;SDS011;7812;50.072;7.036;2022-07-29T01:36:25;2.57;;;2.27;;
15425;SDS011;7812;50.072;7.036;2022-07-29T01:39:10;3.43;;;2.10;;
15425;SDS011;7812;50.072;7.036;2022-07-29T01:41:49;2.53;;;1.90;;
15425;SDS011;7812;50.072;7.036;2022-07-29T01:44:44;2.80;;;2.20;;
15425;SDS011;7812;50.072;7.036;2022-07-29T01:47:20;3.30;;;1.93;;
15425;SDS011;7812;50.072;7.036;2022-07-29T01:49:51;2.67;;;2.10;;
15425;SDS011;7812;50.072;7.036;2022-07-29T01:55:15;2.90;;;2.17;;
15425;SDS011;7812;50.072;7.036;2022-07-29T01:57:43;3.87;;;2.10;;
15425;SDS011;7812;50.072;7.036;2022-07-29T02:00:11;3.53;;;2.00;;
15425;SDS011;7812;50.072;7.036;2022-07-29T02:02:39;2.07;;;1.80;;
15425;SDS011;7812;50.072;7.036;2022-07-29T02:05:07;2.50;;;2.30;;
15425;SDS011;7812;50.072;7.036;2022-07-29T02:07:36;2.70;;;2.27;;
15425;SDS011;7812;50.072;7.036;2022-07-29T02:10:03;2.30;;;2.10;;
15425;SDS011;7812;50.072;7.036;2022-07-29T02:12:30;4.40;;;2.20;;
15425;SDS011;7812;50.072;7.036;2022-07-29T02:14:58;2.47;;;2.27;;
15425;SDS011;7812;50.072;7.036;2022-07-29T02:17:27;2.20;;;2.00;;
15425;SDS011;7812;50.072;7.036;2022-07-29T02:19:59;3.30;;;2.03;;
15425;SDS011;7812;50.072;7.036;2022-07-29T02:22:28;2.60;;;1.97;;
15425;SDS011;7812;50.072;7.036;2022-07-29T02:24:56;4.07;;;2.17;;
15425;SDS011;7812;50.072;7.036;2022-07-29T02:27:23;2.40;;;2.00;;
15425;SDS011;7812;50.072;7.036;2022-07-29T02:29:52;2.10;;;1.90;;
15425;SDS011;7812;50.072;7.036;2022-07-29T02:32:18;3.50;;;1.97;;
15425;SDS011;7812;50.072;7.036;2022-07-29T02:34:46;3.13;;;1.97;;
15425;SDS011;7812;50.072;7.036;2022-07-29T02:37:12;3.83;;;2.23;;
15425;SDS011;7812;50.072;7.036;2022-07-29T02:39:42;3.63;;;2.30;;
15425;SDS011;7812;50.072;7.036;2022-07-29T02:42:10;2.77;;;2.27;;
15425;SDS011;7812;50.072;7.036;2022-07-29T02:44:39;2.40;;;2.20;;
15425;SDS011;7812;50.072;7.036;2022-07-29T02:47:27;2.20;;;2.00;;
15425;SDS011;7812;50.072;7.036;2022-07-29T02:50:06;3.67;;;2.17;;
15425;SDS011;7812;50.072;7.036;2022-07-29T02:52:39;2.87;;;2.13;;
15425;SDS011;7812;50.072;7.036;2022-07-29T02:55:11;2.30;;;2.10;;
15425;SDS011;7812;50.072;7.036;2022-07-29T02:58:03;2.17;;;1.77;;
15425;SDS011;7812;50.072;7.036;2022-07-29T03:00:31;3.07;;;2.20;;
15425;SDS011;7812;50.072;7.036;2022-07-29T03:03:02;4.17;;;2.33;;
15425;SDS011;7812;50.072;7.036;2022-07-29T03:05:30;3.30;;;2.03;;
15425;SDS011;7812;50.072;7.036;2022-07-29T03:08:00;2.60;;;1.97;;
15425;SDS011;7812;50.072;7.036;2022-07-29T03:10:28;2.90;;;2.23;;
15425;SDS011;7812;50.072;7.036;2022-07-29T03:12:55;3.10;;;2.13;;
15425;SDS011;7812;50.072;7.036;2022-07-29T03:15:22;3.00;;;2.23;;
15425;SDS011;7812;50.072;7.036;2022-07-29T03:17:49;2.97;;;2.30;;
15425;SDS011;7812;50.072;7.036;2022-07-29T03:20:16;4.43;;;2.10;;
15425;SDS011;7812;50.072;7.036;2022-07-29T03:22:43;2.17;;;2.03;;
15425;SDS011;7812;50.072;7.036;2022-07-29T03:25:15;2.83;;;2.13;;
15425;SDS011;7812;50.072;7.036;2022-07-29T03:27:43;2.13;;;1.80;;
15425;SDS011;7812;50.072;7.036;2022-07-29T03:30:10;2.20;;;1.93;;
15425;SDS011;7812;50.072;7.036;2022-07-29T03:32:37;4.50;;;2.30;;
15425;SDS011;7812;50.072;7.036;2022-07-29T03:35:03;2.50;;;2.20;;
15425;SDS011;7812;50.072;7.036;2022-07-29T03:37:30;2.40;;;2.20;;
15425;SDS011;7812;50.072;7.036;2022-07-29T03:39:57;2.27;;;2.07;;
15425;SDS011;7812;50.072;7.036;2022-07-29T03:42:24;4.43;;;2.40;;
15425;SDS011;7812;50.072;7.036;2022-07-29T03:44:53;3.87;;;2.00;;
15425;SDS011;7812;50.072;7.036;2022-07-29T03:47:22;2.10;;;1.93;;
15425;SDS011;7812;50.072;7.036;2022-07-29T03:49:54;3.67;;;2.17;;
15425;SDS011;7812;50.072;7.036;2022-07-29T03:52:25;3.47;;;2.50;;
15425;SDS011;7812;50.072;7.036;2022-07-29T03:54:51;4.17;;;2.27;;
15425;SDS011;7812;50.072;7.036;2022-07-29T03:57:18;2.90;;;2.40;;
15425;SDS011;7812;50.072;7.036;2022-07-29T03:59:48;3.63;;;2.07;;
15425;SDS011;7812;50.072;7.036;2022-07-29T04:02:16;3.87;;;2.13;;
15425;SDS011;7812;50.072;7.036;2022-07-29T04:04:42;2.63;;;1.97;;
15425;SDS011;7812;50.072;7.036;2022-07-29T04:07:08;3.00;;;1.97;;
15425;SDS011;7812;50.072;7.036;2022-07-29T04:09:40;2.87;;;2.20;;
15425;SDS011;7812;50.072;7.036;2022-07-29T04:12:06;3.13;;;2.10;;
15425;SDS011;7812;50.072;7.036;2022-07-29T04:14:32;2.43;;;1.90;;
15425;SDS011;7812;50.072;7.036;2022-07-29T04:16:59;3.37;;;2.50;;
15425;SDS011;7812;50.072;7.036;2022-07-29T04:19:26;3.77;;;2.23;;
15425;SDS011;7812;50.072;7.036;2022-07-29T04:21:52;3.40;;;2.20;;
15425;SDS011;7812;50.072;7.036;2022-07-29T04:24:18;2.40;;;2.20;;
15425;SDS011;7812;50.072;7.036;2022-07-29T04:26:45;2.43;;;2.20;;
15425;SDS011;7812;50.072;7.036;2022-07-29T04:29:11;3.13;;;2.10;;
15425;SDS011;7812;50.072;7.036;2022-07-29T04:31:39;3.00;;;1.90;;
15425;SDS011;7812;50.072;7.036;2022-07-29T04:34:06;2.87;;;2.10;;
15425;SDS011;7812;50.072;7.036;2022-07-29T04:36:34;1.93;;;1.73;;
15425;SDS011;7812;50.072;7.036;2022-07-29T04:39:00;2.23;;;2.00;;
15425;SDS011;7812;50.072;7.036;2022-07-29T04:41:27;3.23;;;2.40;;
15425;SDS011;7812;50.072;7.036;2022-07-29T04:43:53;2.37;;;2.10;;
15425;SDS011;7812;50.072;7.036;2022-07-29T04:46:19;3.17;;;2.20;;
15425;SDS011;7812;50.072;7.036;2022-07-29T04:48:46;3.10;;;2.07;;
15425;SDS011;7812;50.072;7.036;2022-07-29T04:51:13;1.97;;;1.70;;
15425;SDS011;7812;50.072;7.036;2022-07-29T04:53:39;2.13;;;1.80;;
15425;SDS011;7812;50.072;7.036;2022-07-29T04:56:05;4.10;;;1.80;;
15425;SDS011;7812;50.072;7.036;2022-07-29T04:58:32;2.03;;;1.70;;
15425;SDS011;7812;50.072;7.036;2022-07-29T05:01:00;2.67;;;2.00;;
15425;SDS011;7812;50.072;7.036;2022-07-29T05:03:25;2.13;;;1.93;;
15425;SDS011;7812;50.072;7.036;2022-07-29T05:05:54;2.20;;;1.97;;
15425;SDS011;7812;50.072;7.036;2022-07-29T05:08:20;3.13;;;2.23;;
15425;SDS011;7812;50.072;7.036;2022-07-29T05:10:46;4.47;;;2.53;;
15425;SDS011;7812;50.072;7.036;2022-07-29T05:13:12;2.67;;;2.10;;
15425;SDS011;7812;50.072;7.036;2022-07-29T05:15:41;2.97;;;2.10;;
15425;SDS011;7812;50.072;7.036;2022-07-29T05:18:07;2.47;;;1.87;;
15425;SDS011;7812;50.072;7.036;2022-07-29T05:20:32;4.40;;;2.10;;
15425;SDS011;7812;50.072;7.036;2022-07-29T05:23:00;2.60;;;1.80;;
15425;SDS011;7812;50.072;7.036;2022-07-29T05:25:28;3.27;;;1.97;;
15425;SDS011;7812;50.072;7.036;2022-07-29T05:27:54;2.87;;;1.80;;
15425;SDS011;7812;50.072;7.036;2022-07-29T05:30:21;3.43;;;2.03;;
15425;SDS011;7812;50.072;7.036;2022-07-29T05:32:47;3.80;;;2.03;;
15425;SDS011;7812;50.072;7.036;2022-07-29T05:35:13;2.83;;;2.00;;
15425;SDS011;7812;50.072;7.036;2022-07-29T05:37:40;3.47;;;2.33;;
15425;SDS011;7812;50.072;7.036;2022-07-29T05:40:06;3.47;;;2.10;;
15425;SDS011;7812;50.072;7.036;2022-07-29T05:42:33;4.83;;;1.80;;
15425;SDS011;7812;50.072;7.036;2022-07-29T05:44:59;1.93;;;1.77;;
15425;SDS011;7812;50.072;7.036;2022-07-29T05:47:25;2.30;;;2.10;;
15425;SDS011;7812;50.072;7.036;2022-07-29T05:49:51;3.37;;;2.10;;
15425;SDS011;7812;50.072;7.036;2022-07-29T05:52:18;3.40;;;1.60;;
15425;SDS011;7812;50.072;7.036;2022-07-29T05:54:44;3.67;;;2.00;;
15425;SDS011;7812;50.072;7.036;2022-07-29T05:57:17;2.43;;;2.00;;
15425;SDS011;7812;50.072;7.036;2022-07-29T05:59:44;3.13;;;1.73;;
15425;SDS011;7812;50.072;7.036;2022-07-29T06:02:10;3.53;;;1.80;;
15425;SDS011;7812;50.072;7.036;2022-07-29T06:04:36;3.23;;;1.80;;
15425;SDS011;7812;50.072;7.036;2022-07-29T06:07:02;2.70;;;1.90;;
15425;SDS011;7812;50.072;7.036;2022-07-29T06:09:29;2.20;;;1.90;;
15425;SDS011;7812;50.072;7.036;2022-07-29T06:11:55;2.40;;;1.60;;
15425;SDS011;7812;50.072;7.036;2022-07-29T06:14:21;2.67;;;2.00;;
15425;SDS011;7812;50.072;7.036;2022-07-29T06:16:46;3.00;;;1.70;;
15425;SDS011;7812;50.072;7.036;2022-07-29T06:19:12;3.63;;;1.80;;
15425;SDS011;7812;50.072;7.036;2022-07-29T06:21:41;3.33;;;1.77;;
15425;SDS011;7812;50.072;7.036;2022-07-29T06:24:08;3.37;;;1.70;;
15425;SDS011;7812;50.072;7.036;2022-07-29T06:26:39;2.77;;;1.73;;
15425;SDS011;7812;50.072;7.036;2022-07-29T06:29:05;3.33;;;1.53;;
15425;SDS011;7812;50.072;7.036;2022-07-29T06:31:32;1.87;;;1.67;;
15425;SDS011;7812;50.072;7.036;2022-07-29T06:33:58;4.10;;;1.57;;
15425;SDS011;7812;50.072;7.036;2022-07-29T06:36:24;3.73;;;1.53;;
15425;SDS011;7812;50.072;7.036;2022-07-29T06:38:50;4.97;;;1.90;;
15425;SDS011;7812;50.072;7.036;2022-07-29T06:41:15;3.47;;;1.63;;
15425;SDS011;7812;50.072;7.036;2022-07-29T06:43:43;2.77;;;1.40;;
15425;SDS011;7812;50.072;7.036;2022-07-29T06:46:12;3.93;;;1.70;;
15425;SDS011;7812;50.072;7.036;2022-07-29T06:48:44;3.10;;;1.60;;
15425;SDS011;7812;50.072;7.036;2022-07-29T06:51:10;2.17;;;1.60;;
15425;SDS011;7812;50.072;7.036;2022-07-29T06:53:37;3.63;;;1.40;;
15425;SDS011;7812;50.072;7.036;2022-07-29T06:56:04;2.83;;;1.60;;
15425;SDS011;7812;50.072;7.036;2022-07-29T06:58:31;2.37;;;1.50;;
15425;SDS011;7812;50.072;7.036;2022-07-29T07:00:57;5.43;;;1.60;;
15425;SDS011;7812;50.072;7.036;2022-07-29T07:03:26;3.50;;;1.63;;
15425;SDS011;7812;50.072;7.036;2022-07-29T07:05:52;2.87;;;1.27;;
15425;SDS011;7812;50.072;7.036;2022-07-29T07:08:19;1.90;;;1.43;;
15425;SDS011;7812;50.072;7.036;2022-07-29T07:10:46;1.83;;;1.43;;
15425;SDS011;7812;50.072;7.036;2022-07-29T07:13:13;2.83;;;1.47;;
15425;SDS011;7812;50.072;7.036;2022-07-29T07:15:39;2.30;;;1.30;;
15425;SDS011;7812;50.072;7.036;2022-07-29T07:18:06;1.73;;;1.30;;
15425;SDS011;7812;50.072;7.036;2022-07-29T07:20:33;2.17;;;1.53;;
15425;SDS011;7812;50.072;7.036;2022-07-29T07:22:59;5.30;;;1.60;;
15425;SDS011;7812;50.072;7.036;2022-07-29T07:25:25;2.27;;;1.30;;
15425;SDS011;7812;50.072;7.036;2022-07-29T07:27:52;6.07;;;1.70;;
15425;SDS011;7812;50.072;7.036;2022-07-29T07:30:17;1.97;;;1.30;;
15425;SDS011;7812;50.072;7.036;2022-07-29T07:32:43;2.67;;;1.50;;
15425;SDS011;7812;50.072;7.036;2022-07-29T07:35:09;4.70;;;2.07;;
15425;SDS011;7812;50.072;7.036;2022-07-29T07:37:35;5.60;;;1.53;;
15425;SDS011;7812;50.072;7.036;2022-07-29T07:40:02;3.33;;;1.70;;
15425;SDS011;7812;50.072;7.036;2022-07-29T07:42:29;3.50;;;1.50;;
15425;SDS011;7812;50.072;7.036;2022-07-29T07:44:55;2.93;;;1.77;;
15425;SDS011;7812;50.072;7.036;2022-07-29T07:47:21;4.70;;;2.00;;
15425;SDS011;7812;50.072;7.036;2022-07-29T07:49:52;3.03;;;1.80;;
15425;SDS011;7812;50.072;7.036;2022-07-29T07:52:19;4.63;;;1.90;;
15425;SDS011;7812;50.072;7.036;2022-07-29T07:54:46;3.03;;;1.70;;
15425;SDS011;7812;50.072;7.036;2022-07-29T07:57:12;2.27;;;1.80;;
15425;SDS011;7812;50.072;7.036;2022-07-29T07:59:38;2.60;;;1.40;;
15425;SDS011;7812;50.072;7.036;2022-07-29T08:02:04;3.83;;;1.80;;
15425;SDS011;7812;50.072;7.036;2022-07-29T08:04:30;3.83;;;1.73;;
15425;SDS011;7812;50.072;7.036;2022-07-29T08:06:57;4.47;;;1.80;;
15425;SDS011;7812;50.072;7.036;2022-07-29T08:09:26;3.37;;;1.93;;
15425;SDS011;7812;50.072;7.036;2022-07-29T08:11:53;6.20;;;1.80;;
15425;SDS011;7812;50.072;7.036;2022-07-29T08:14:19;3.50;;;1.60;;
15425;SDS011;7812;50.072;7.036;2022-07-29T08:16:46;4.00;;;2.30;;
15425;SDS011;7812;50.072;7.036;2022-07-29T08:19:11;2.50;;;1.90;;
15425;SDS011;7812;50.072;7.036;2022-07-29T08:21:38;3.73;;;1.93;;
15425;SDS011;7812;50.072;7.036;2022-07-29T08:24:04;2.93;;;1.50;;
15425;SDS011;7812;50.072;7.036;2022-07-29T08:26:51;2.87;;;1.97;;
15425;SDS011;7812;50.072;7.036;2022-07-29T08:29:16;2.97;;;1.60;;
15425;SDS011;7812;50.072;7.036;2022-07-29T08:31:42;2.57;;;1.70;;
15425;SDS011;7812;50.072;7.036;2022-07-29T08:34:08;2.97;;;1.80;;
15425;SDS011;7812;50.072;7.036;2022-07-29T08:36:34;3.67;;;1.80;;
15425;SDS011;7812;50.072;7.036;2022-07-29T08:39:04;3.77;;;2.07;;
15425;SDS011;7812;50.072;7.036;2022-07-29T08:41:30;3.97;;;1.97;;
15425;SDS011;7812;50.072;7.036;2022-07-29T08:43:56;2.33;;;1.80;;
15425;SDS011;7812;50.072;7.036;2022-07-29T08:46:22;2.73;;;1.63;;
15425;SDS011;7812;50.072;7.036;2022-07-29T08:48:52;2.90;;;1.90;;
15425;SDS011;7812;50.072;7.036;2022-07-29T08:51:18;4.27;;;1.90;;
15425;SDS011;7812;50.072;7.036;2022-07-29T08:53:46;2.40;;;1.50;;
15425;SDS011;7812;50.072;7.036;2022-07-29T08:56:13;4.70;;;1.97;;
15425;SDS011;7812;50.072;7.036;2022-07-29T08:58:42;2.67;;;2.00;;
15425;SDS011;7812;50.072;7.036;2022-07-29T09:01:08;2.63;;;1.87;;
15425;SDS011;7812;50.072;7.036;2022-07-29T09:03:36;3.97;;;1.60;;
15425;SDS011;7812;50.072;7.036;2022-07-29T09:06:03;4.03;;;2.00;;
15425;SDS011;7812;50.072;7.036;2022-07-29T09:08:33;4.03;;;2.00;;
15425;SDS011;7812;50.072;7.036;2022-07-29T09:11:00;2.13;;;1.70;;
15425;SDS011;7812;50.072;7.036;2022-07-29T09:13:27;2.63;;;1.77;;
15425;SDS011;7812;50.072;7.036;2022-07-29T09:15:53;4.47;;;1.83;;
15425;SDS011;7812;50.072;7.036;2022-07-29T09:21:07;2.87;;;1.60;;
15425;SDS011;7812;50.072;7.036;2022-07-29T09:24:00;2.50;;;1.60;;
15425;SDS011;7812;50.072;7.036;2022-07-29T09:26:28;4.77;;;2.13;;
15425;SDS011;7812;50.072;7.036;2022-07-29T09:28:54;2.33;;;1.60;;
15425;SDS011;7812;50.072;7.036;2022-07-29T09:31:26;1.90;;;1.70;;
15425;SDS011;7812;50.072;7.036;2022-07-29T09:33:58;4.33;;;2.00;;
15425;SDS011;7812;50.072;7.036;2022-07-29T09:36:25;2.53;;;2.07;;
15425;SDS011;7812;50.072;7.036;2022-07-29T09:38:58;2.60;;;1.73;;
15425;SDS011;7812;50.072;7.036;2022-07-29T09:41:25;2.73;;;1.90;;
15425;SDS011;7812;50.072;7.036;2022-07-29T09:43:53;2.40;;;1.90;;
15425;SDS011;7812;50.072;7.036;2022-07-29T09:46:23;3.27;;;2.10;;
15425;SDS011;7812;50.072;7.036;2022-07-29T09:51:35;3.67;;;2.00;;
15425;SDS011;7812;50.072;7.036;2022-07-29T09:54:02;2.40;;;2.00;;
15425;SDS011;7812;50.072;7.036;2022-07-29T09:56:53;3.93;;;1.80;;
15425;SDS011;7812;50.072;7.036;2022-07-29T09:59:19;5.30;;;2.30;;
15425;SDS011;7812;50.072;7.036;2022-07-29T10:01:49;3.37;;;1.90;;
15425;SDS011;7812;50.072;7.036;2022-07-29T10:04:15;3.87;;;2.10;;
15425;SDS011;7812;50.072;7.036;2022-07-29T10:09:27;3.90;;;1.93;;
15425;SDS011;7812;50.072;7.036;2022-07-29T10:12:03;3.43;;;2.20;;
15425;SDS011;7812;50.072;7.036;2022-07-29T10:14:38;3.30;;;2.10;;
15425;SDS011;7812;50.072;7.036;2022-07-29T10:17:05;3.83;;;2.30;;
15425;SDS011;7812;50.072;7.036;2022-07-29T10:19:32;4.20;;;2.10;;
15425;SDS011;7812;50.072;7.036;2022-07-29T10:21:59;3.43;;;2.13;;
15425;SDS011;7812;50.072;7.036;2022-07-29T10:24:26;3.17;;;2.20;;
15425;SDS011;7812;50.072;7.036;2022-07-29T10:26:55;4.50;;;2.17;;
15425;SDS011;7812;50.072;7.036;2022-07-29T10:29:22;5.40;;;2.20;;
15425;SDS011;7812;50.072;7.036;2022-07-29T10:34:27;3.33;;;2.00;;
15425;SDS011;7812;50.072;7.036;2022-07-29T10:39:56;3.23;;;2.00;;
15425;SDS011;7812;50.072;7.036;2022-07-29T10:42:52;3.00;;;2.47;;
15425;SDS011;7812;50.072;7.036;2022-07-29T10:45:20;4.37;;;2.33;;
15425;SDS011;7812;50.072;7.036;2022-07-29T10:47:47;2.60;;;2.40;;
15425;SDS011;7812;50.072;7.036;2022-07-29T10:50:13;3.17;;;2.30;;
15425;SDS011;7812;50.072;7.036;2022-07-29T10:52:51;3.97;;;2.20;;
15425;SDS011;7812;50.072;7.036;2022-07-29T10:55:32;2.67;;;2.23;;
15425;SDS011;7812;50.072;7.036;2022-07-29T11:00:49;4.83;;;2.63;;
15425;SDS011;7812;50.072;7.036;2022-07-29T11:06:12;3.43;;;2.27;;
15425;SDS011;7812;50.072;7.036;2022-07-29T11:08:38;2.10;;;1.80;;
15425;SDS011;7812;50.072;7.036;2022-07-29T11:11:50;4.00;;;2.10;;
15425;SDS011;7812;50.072;7.036;2022-07-29T11:13:51;2.83;;;2.20;;
15425;SDS011;7812;50.072;7.036;2022-07-29T11:16:20;3.20;;;2.33;;
15425;SDS011;7812;50.072;7.036;2022-07-29T11:21:39;3.57;;;2.40;;
15425;SDS011;7812;50.072;7.036;2022-07-29T11:24:12;2.53;;;2.20;;
15425;SDS011;7812;50.072;7.036;2022-07-29T11:26:42;2.87;;;2.00;;
15425;SDS011;7812;50.072;7.036;2022-07-29T11:29:19;2.03;;;1.80;;
15425;SDS011;7812;50.072;7.036;2022-07-29T11:31:49;3.90;;;2.10;;
15425;SDS011;7812;50.072;7.036;2022-07-29T11:39:38;2.77;;;1.97;;
15425;SDS011;7812;50.072;7.036;2022-07-29T11:44:56;3.17;;;2.33;;
15425;SDS011;7812;50.072;7.036;2022-07-29T11:47:32;3.40;;;1.87;;
15425;SDS011;7812;50.072;7.036;2022-07-29T11:50:00;4.80;;;2.03;;
15425;SDS011;7812;50.072;7.036;2022-07-29T11:55:02;3.90;;;2.50;;
15425;SDS011;7812;50.072;7.036;2022-07-29T11:57:29;3.00;;;1.87;;
15425;SDS011;7812;50.072;7.036;2022-07-29T11:59:55;3.80;;;1.80;;
15425;SDS011;7812;50.072;7.036;2022-07-29T12:02:23;2.47;;;2.03;;
15425;SDS011;7812;50.072;7.036;2022-07-29T12:04:56;4.13;;;1.87;;
15425;SDS011;7812;50.072;7.036;2022-07-29T12:07:26;2.80;;;2.10;;
15425;SDS011;7812;50.072;7.036;2022-07-29T12:09:56;3.03;;;2.10;;
15425;SDS011;7812;50.072;7.036;2022-07-29T12:12:22;3.33;;;1.87;;
15425;SDS011;7812;50.072;7.036;2022-07-29T12:14:49;5.27;;;1.90;;
15425;SDS011;7812;50.072;7.036;2022-07-29T12:20:03;5.57;;;2.00;;
15425;SDS011;7812;50.072;7.036;2022-07-29T12:22:36;1.90;;;1.70;;
15425;SDS011;7812;50.072;7.036;2022-07-29T12:25:09;4.57;;;2.00;;
15425;SDS011;7812;50.072;7.036;2022-07-29T12:27:39;3.00;;;2.03;;
15425;SDS011;7812;50.072;7.036;2022-07-29T12:30:05;3.93;;;2.20;;
15425;SDS011;7812;50.072;7.036;2022-07-29T12:32:39;3.70;;;2.37;;
15425;SDS011;7812;50.072;7.036;2022-07-29T12:35:10;3.47;;;2.13;;
15425;SDS011;7812;50.072;7.036;2022-07-29T12:37:41;3.20;;;2.10;;
15425;SDS011;7812;50.072;7.036;2022-07-29T12:40:10;3.63;;;2.30;;
15425;SDS011;7812;50.072;7.036;2022-07-29T12:42:37;3.60;;;2.20;;
15425;SDS011;7812;50.072;7.036;2022-07-29T12:45:04;3.83;;;2.00;;
15425;SDS011;7812;50.072;7.036;2022-07-29T12:47:31;3.60;;;2.13;;
15425;SDS011;7812;50.072;7.036;2022-07-29T12:52:36;4.70;;;1.90;;
15425;SDS011;7812;50.072;7.036;2022-07-29T12:55:03;3.20;;;1.97;;
15425;SDS011;7812;50.072;7.036;2022-07-29T12:57:29;4.23;;;1.90;;
15425;SDS011;7812;50.072;7.036;2022-07-29T13:00:09;5.07;;;2.17;;
15425;SDS011;7812;50.072;7.036;2022-07-29T13:02:38;6.40;;;2.47;;
15425;SDS011;7812;50.072;7.036;2022-07-29T13:05:06;3.60;;;2.13;;
15425;SDS011;7812;50.072;7.036;2022-07-29T13:07:33;4.07;;;2.23;;
15425;SDS011;7812;50.072;7.036;2022-07-29T13:10:15;3.37;;;1.80;;
15425;SDS011;7812;50.072;7.036;2022-07-29T13:15:31;2.53;;;2.00;;
15425;SDS011;7812;50.072;7.036;2022-07-29T13:18:00;2.73;;;1.77;;
15425;SDS011;7812;50.072;7.036;2022-07-29T13:20:26;2.80;;;1.90;;
15425;SDS011;7812;50.072;7.036;2022-07-29T13:22:59;4.27;;;2.20;;
15425;SDS011;7812;50.072;7.036;2022-07-29T13:25:27;2.47;;;1.70;;
15425;SDS011;7812;50.072;7.036;2022-07-29T13:27:57;2.90;;;2.03;;
15425;SDS011;7812;50.072;7.036;2022-07-29T13:30:24;3.80;;;2.00;;
15425;SDS011;7812;50.072;7.036;2022-07-29T13:33:02;4.70;;;2.03;;
15425;SDS011;7812;50.072;7.036;2022-07-29T13:35:28;3.07;;;1.97;;
15425;SDS011;7812;50.072;7.036;2022-07-29T13:37:54;6.13;;;2.20;;
15425;SDS011;7812;50.072;7.036;2022-07-29T13:40:20;5.13;;;2.20;;
15425;SDS011;7812;50.072;7.036;2022-07-29T13:42:46;9.47;;;2.77;;
15425;SDS011;7812;50.072;7.036;2022-07-29T13:45:12;10.50;;;2.10;;
15425;SDS011;7812;50.072;7.036;2022-07-29T13:47:38;3.73;;;1.77;;
15425;SDS011;7812;50.072;7.036;2022-07-29T13:50:04;1.90;;;1.50;;
15425;SDS011;7812;50.072;7.036;2022-07-29T13:52:32;4.00;;;2.10;;
15425;SDS011;7812;50.072;7.036;2022-07-29T13:54:58;2.57;;;1.90;;
15425;SDS011;7812;50.072;7.036;2022-07-29T13:57:24;2.57;;;2.00;;
15425;SDS011;7812;50.072;7.036;2022-07-29T13:59:53;3.67;;;2.30;;
15425;SDS011;7812;50.072;7.036;2022-07-29T14:02:20;4.13;;;2.47;;
15425;SDS011;7812;50.072;7.036;2022-07-29T14:04:46;5.57;;;2.60;;
15425;SDS011;7812;50.072;7.036;2022-07-29T14:07:12;3.07;;;2.27;;
15425;SDS011;7812;50.072;7.036;2022-07-29T14:09:38;4.60;;;2.07;;
15425;SDS011;7812;50.072;7.036;2022-07-29T14:12:04;6.67;;;2.07;;
15425;SDS011;7812;50.072;7.036;2022-07-29T14:14:30;4.53;;;2.27;;
15425;SDS011;7812;50.072;7.036;2022-07-29T14:16:57;4.00;;;2.60;;
15425;SDS011;7812;50.072;7.036;2022-07-29T14:19:23;5.33;;;2.67;;
15425;SDS011;7812;50.072;7.036;2022-07-29T14:21:49;6.37;;;2.40;;
15425;SDS011;7812;50.072;7.036;2022-07-29T14:24:15;6.17;;;2.43;;
15425;SDS011;7812;50.072;7.036;2022-07-29T14:26:41;5.47;;;2.50;;
15425;SDS011;7812;50.072;7.036;2022-07-29T14:29:07;4.50;;;2.27;;
15425;SDS011;7812;50.072;7.036;2022-07-29T14:31:48;5.60;;;2.30;;
15425;SDS011;7812;50.072;7.036;2022-07-29T14:34:13;2.63;;;1.93;;
15425;SDS011;7812;50.072;7.036;2022-07-29T14:36:40;5.30;;;2.23;;
15425;SDS011;7812;50.072;7.036;2022-07-29T14:39:06;3.80;;;2.10;;
15425;SDS011;7812;50.072;7.036;2022-07-29T14:41:32;4.60;;;2.53;;
15425;SDS011;7812;50.072;7.036;2022-07-29T14:43:58;2.87;;;2.40;;
15425;SDS011;7812;50.072;7.036;2022-07-29T14:46:27;8.03;;;2.30;;
15425;SDS011;7812;50.072;7.036;2022-07-29T14:48:53;4.07;;;2.50;;
15425;SDS011;7812;50.072;7.036;2022-07-29T14:51:19;5.40;;;2.30;;
15425;SDS011;7812;50.072;7.036;2022-07-29T14:53:45;7.37;;;2.87;;
15425;SDS011;7812;50.072;7.036;2022-07-29T14:56:11;4.07;;;2.37;;
15425;SDS011;7812;50.072;7.036;2022-07-29T14:58:37;3.33;;;2.20;;
15425;SDS011;7812;50.072;7.036;2022-07-29T15:01:03;7.00;;;2.40;;
15425;SDS011;7812;50.072;7.036;2022-07-29T15:03:29;6.93;;;2.47;;
15425;SDS011;7812;50.072;7.036;2022-07-29T15:05:55;5.33;;;2.23;;
15425;SDS011;7812;50.072;7.036;2022-07-29T15:08:21;6.33;;;2.33;;
15425;SDS011;7812;50.072;7.036;2022-07-29T15:10:46;8.27;;;2.47;;
15425;SDS011;7812;50.072;7.036;2022-07-29T15:13:12;3.13;;;2.40;;
15425;SDS011;7812;50.072;7.036;2022-07-29T15:15:38;4.33;;;2.30;;
15425;SDS011;7812;50.072;7.036;2022-07-29T15:18:04;3.07;;;2.20;;
15425;SDS011;7812;50.072;7.036;2022-07-29T15:20:33;4.00;;;2.40;;
15425;SDS011;7812;50.072;7.036;2022-07-29T15:22:59;2.67;;;2.20;;
15425;SDS011;7812;50.072;7.036;2022-07-29T15:25:25;3.73;;;2.43;;
15425;SDS011;7812;50.072;7.036;2022-07-29T15:27:51;6.27;;;2.53;;
15425;SDS011;7812;50.072;7.036;2022-07-29T15:30:17;3.93;;;2.67;;
15425;SDS011;7812;50.072;7.036;2022-07-29T15:32:43;5.17;;;2.27;;
15425;SDS011;7812;50.072;7.036;2022-07-29T15:35:09;3.17;;;2.30;;
15425;SDS011;7812;50.072;7.036;2022-07-29T15:37:38;3.17;;;2.40;;
15425;SDS011;7812;50.072;7.036;2022-07-29T15:40:05;6.50;;;2.60;;
15425;SDS011;7812;50.072;7.036;2022-07-29T15:42:31;4.90;;;2.50;;
15425;SDS011;7812;50.072;7.036;2022-07-29T15:45:00;5.53;;;2.03;;
15425;SDS011;7812;50.072;7.036;2022-07-29T15:47:28;3.73;;;2.30;;
15425;SDS011;7812;50.072;7.036;2022-07-29T15:49:53;6.07;;;2.40;;
15425;SDS011;7812;50.072;7.036;2022-07-29T15:52:19;3.63;;;2.47;;
15425;SDS011;7812;50.072;7.036;2022-07-29T15:54:45;2.80;;;2.30;;
15425;SDS011;7812;50.072;7.036;2022-07-29T15:57:11;2.70;;;2.33;;
15425;SDS011;7812;50.072;7.036;2022-07-29T15:59:37;4.00;;;2.30;;